sensor_id;sensor_type;location;lat;lon;timestamp;pressure;altitude;pressure_sealevel;temperature;humidity
66681;BME280;53575;51.366;12.350;2022-08-19T00:00:29;99697.44;;;19.68;100.00
66681;BME280;53575;51.366;12.350;2022-08-19T00:02:54;99709.31;;;19.61;100.00
66681;BME280;53575;51.366;12.350;2022-08-19T00:05:21;99705.00;;;19.59;100.00
66681;BME280;53575;51.366;12.350;2022-08-19T00:07:47;99706.09;;;19.72;100.00
66681;BME280;53575;51.366;12.350;2022-08-19T00:10:14;99717.63;;;19.71;100.00
66681;BME280;53575;51.366;12.350;2022-08-19T00:12:41;99728.50;;;19.66;100.00
66681;BME280;53575;51.366;12.350;2022-08-19T00:15:09;99727.84;;;19.79;100.00
66681;BME280;53575;51.366;12.350;2022-08-19T00:17:44;99712.88;;;19.78;100.00
66681;BME280;53575;51.366;12.350;2022-08-19T00:20:12;99717.13;;;19.80;100.00
66681;BME280;53575;51.366;12.350;2022-08-19T00:22:38;99715.38;;;19.81;100.00
66681;BME280;53575;51.366;12.350;2022-08-19T00:25:05;99712.03;;;19.77;100.00
66681;BME280;53575;51.366;12.350;2022-08-19T00:27:31;99709.19;;;19.80;100.00
66681;BME280;53575;51.366;12.350;2022-08-19T00:29:57;99700.47;;;19.78;100.00
66681;BME280;53575;51.366;12.350;2022-08-19T00:32:24;99698.66;;;19.79;100.00
66681;BME280;53575;51.366;12.350;2022-08-19T00:34:50;99702.28;;;19.78;100.00
66681;BME280;53575;51.366;12.350;2022-08-19T00:37:18;99706.81;;;19.58;100.00
66681;BME280;53575;51.366;12.350;2022-08-19T00:39:44;99700.72;;;19.74;100.00
66681;BME280;53575;51.366;12.350;2022-08-19T00:42:10;99695.69;;;19.69;100.00
66681;BME280;53575;51.366;12.350;2022-08-19T00:44:35;99697.13;;;19.75;100.00
66681;BME280;53575;51.366;12.350;2022-08-19T00:47:01;99680.28;;;19.76;100.00
66681;BME280;53575;51.366;12.350;2022-08-19T00:49:30;99679.06;;;19.65;100.00
66681;BME280;53575;51.366;12.350;2022-08-19T00:52:05;99674.47;;;19.69;100.00
66681;BME280;53575;51.366;12.350;2022-08-19T00:54:32;99668.06;;;19.56;100.00
66681;BME280;53575;51.366;12.350;2022-08-19T00:56:59;99678.75;;;19.54;100.00
66681;BME280;53575;51.366;12.350;2022-08-19T00:59:24;99678.75;;;19.54;100.00
66681;BME280;53575;51.366;12.350;2022-08-19T01:01:50;99677.03;;;19.53;100.00
66681;BME280;53575;51.366;12.350;2022-08-19T01:04:16;99674.16;;;19.58;100.00
66681;BME280;53575;51.366;12.350;2022-08-19T01:06:41;99672.25;;;19.60;100.00
66681;BME280;53575;51.366;12.350;2022-08-19T01:09:07;99666.97;;;19.60;100.00
66681;BME280;53575;51.366;12.350;2022-08-19T01:11:36;99674.16;;;19.58;100.00
66681;BME280;53575;51.366;12.350;2022-08-19T01:14:03;99664.31;;;19.60;100.00
66681;BME280;53575;51.366;12.350;2022-08-19T01:16:30;99657.38;;;19.57;100.00
66681;BME280;53575;51.366;12.350;2022-08-19T01:18:56;99663.38;;;19.61;100.00
66681;BME280;53575;51.366;12.350;2022-08-19T01:21:42;99667.63;;;19.47;100.00
66681;BME280;53575;51.366;12.350;2022-08-19T01:24:09;99658.03;;;19.45;100.00
66681;BME280;53575;51.366;12.350;2022-08-19T01:26:40;99656.88;;;19.51;100.00
66681;BME280;53575;51.366;12.350;2022-08-19T01:29:07;99653.59;;;19.45;100.00
66681;BME280;53575;51.366;12.350;2022-08-19T01:31:34;99655.47;;;19.43;100.00
66681;BME280;53575;51.366;12.350;2022-08-19T01:34:00;99653.06;;;19.39;100.00
66681;BME280;53575;51.366;12.350;2022-08-19T01:38:55;99644.09;;;19.41;100.00
66681;BME280;53575;51.366;12.350;2022-08-19T01:41:22;99642.22;;;19.43;100.00
66681;BME280;53575;51.366;12.350;2022-08-19T01:43:49;99643.19;;;19.42;100.00
66681;BME280;53575;51.366;12.350;2022-08-19T01:46:15;99630.94;;;19.40;100.00
66681;BME280;53575;51.366;12.350;2022-08-19T01:48:42;99620.41;;;19.38;100.00
66681;BME280;53575;51.366;12.350;2022-08-19T01:51:10;99622.03;;;19.41;100.00
66681;BME280;53575;51.366;12.350;2022-08-19T01:53:36;99615.97;;;19.39;100.00
66681;BME280;53575;51.366;12.350;2022-08-19T01:56:04;99617.84;;;19.37;100.00
66681;BME280;53575;51.366;12.350;2022-08-19T01:58:33;99618.63;;;19.39;100.00
66681;BME280;53575;51.366;12.350;2022-08-19T02:01:01;99621.28;;;19.39;100.00
66681;BME280;53575;51.366;12.350;2022-08-19T02:03:27;99617.00;;;19.36;100.00
66681;BME280;53575;51.366;12.350;2022-08-19T02:05:57;99603.91;;;19.33;100.00
66681;BME280;53575;51.366;12.350;2022-08-19T02:08:25;99593.25;;;19.35;100.00
66681;BME280;53575;51.366;12.350;2022-08-19T02:10:51;99574.91;;;19.30;100.00
66681;BME280;53575;51.366;12.350;2022-08-19T02:13:16;99565.28;;;19.29;100.00
66681;BME280;53575;51.366;12.350;2022-08-19T02:15:42;99555.63;;;19.28;100.00
66681;BME280;53575;51.366;12.350;2022-08-19T02:18:07;99549.69;;;19.23;100.00
66681;BME280;53575;51.366;12.350;2022-08-19T02:20:33;99566.22;;;19.28;100.00
66681;BME280;53575;51.366;12.350;2022-08-19T02:22:59;99574.06;;;19.30;100.00
66681;BME280;53575;51.366;12.350;2022-08-19T02:25:26;99583.13;;;19.26;100.00
66681;BME280;53575;51.366;12.350;2022-08-19T02:27:52;99587.06;;;19.34;100.00
66681;BME280;53575;51.366;12.350;2022-08-19T02:30:18;99589.22;;;19.43;100.00
66681;BME280;53575;51.366;12.350;2022-08-19T02:32:44;99588.44;;;19.41;100.00
66681;BME280;53575;51.366;12.350;2022-08-19T02:35:09;99598.81;;;19.46;100.00
66681;BME280;53575;51.366;12.350;2022-08-19T02:37:35;99594.69;;;19.40;100.00
66681;BME280;53575;51.366;12.350;2022-08-19T02:40:19;99602.47;;;19.43;100.00
66681;BME280;53575;51.366;12.350;2022-08-19T02:42:45;99598.56;;;19.51;100.00
66681;BME280;53575;51.366;12.350;2022-08-19T02:45:12;99589.28;;;19.42;100.00
66681;BME280;53575;51.366;12.350;2022-08-19T02:47:38;99572.38;;;19.44;100.00
66681;BME280;53575;51.366;12.350;2022-08-19T02:50:05;99568.09;;;19.42;100.00
66681;BME280;53575;51.366;12.350;2022-08-19T02:52:32;99571.53;;;19.44;100.00
66681;BME280;53575;51.366;12.350;2022-08-19T02:54:58;99564.28;;;19.47;100.00
66681;BME280;53575;51.366;12.350;2022-08-19T02:57:23;99567.53;;;19.53;100.00
66681;BME280;53575;51.366;12.350;2022-08-19T02:59:49;99567.63;;;19.51;100.00
66681;BME280;53575;51.366;12.350;2022-08-19T03:02:15;99575.56;;;19.51;100.00
66681;BME280;53575;51.366;12.350;2022-08-19T03:04:41;99600.97;;;19.55;100.00
66681;BME280;53575;51.366;12.350;2022-08-19T03:07:07;99598.88;;;19.44;100.00
66681;BME280;53575;51.366;12.350;2022-08-19T03:09:36;99613.69;;;19.48;100.00
66681;BME280;53575;51.366;12.350;2022-08-19T03:12:03;99622.00;;;19.58;100.00
66681;BME280;53575;51.366;12.350;2022-08-19T03:14:36;99632.59;;;19.58;100.00
66681;BME280;53575;51.366;12.350;2022-08-19T03:17:02;99638.66;;;19.60;100.00
66681;BME280;53575;51.366;12.350;2022-08-19T03:19:29;99658.16;;;19.59;100.00
66681;BME280;53575;51.366;12.350;2022-08-19T03:21:56;99661.59;;;19.61;100.00
66681;BME280;53575;51.366;12.350;2022-08-19T03:24:22;99670.56;;;19.59;100.00
66681;BME280;53575;51.366;12.350;2022-08-19T03:26:51;99657.78;;;19.67;100.00
66681;BME280;53575;51.366;12.350;2022-08-19T03:29:18;99658.63;;;19.67;100.00
66681;BME280;53575;51.366;12.350;2022-08-19T03:31:45;99671.13;;;19.65;100.00
66681;BME280;53575;51.366;12.350;2022-08-19T03:34:16;99669.22;;;19.67;100.00
66681;BME280;53575;51.366;12.350;2022-08-19T03:36:43;99684.41;;;19.81;100.00
66681;BME280;53575;51.366;12.350;2022-08-19T03:39:10;99688.47;;;19.71;100.00
66681;BME280;53575;51.366;12.350;2022-08-19T03:41:39;99685.59;;;19.58;100.00
66681;BME280;53575;51.366;12.350;2022-08-19T03:44:05;99700.28;;;19.48;100.00
66681;BME280;53575;51.366;12.350;2022-08-19T03:46:32;99707.69;;;19.41;100.00
66681;BME280;53575;51.366;12.350;2022-08-19T03:49:01;99711.03;;;19.45;100.00
66681;BME280;53575;51.366;12.350;2022-08-19T03:51:34;99704.81;;;19.46;100.00
66681;BME280;53575;51.366;12.350;2022-08-19T03:54:02;99695.22;;;19.43;100.00
66681;BME280;53575;51.366;12.350;2022-08-19T03:56:29;99693.19;;;19.66;100.00
66681;BME280;53575;51.366;12.350;2022-08-19T03:58:55;99692.78;;;19.74;100.00
66681;BME280;53575;51.366;12.350;2022-08-19T04:01:24;99699.25;;;19.68;100.00
66681;BME280;53575;51.366;12.350;2022-08-19T04:03:52;99695.59;;;19.70;100.00
66681;BME280;53575;51.366;12.350;2022-08-19T04:06:24;99698.94;;;19.74;100.00
66681;BME280;53575;51.366;12.350;2022-08-19T04:08:52;99704.47;;;19.69;100.00
66681;BME280;53575;51.366;12.350;2022-08-19T04:11:22;99706.38;;;19.50;100.00
66681;BME280;53575;51.366;12.350;2022-08-19T04:13:49;99700.47;;;19.61;100.00
66681;BME280;53575;51.366;12.350;2022-08-19T04:16:16;99695.84;;;19.66;100.00
66681;BME280;53575;51.366;12.350;2022-08-19T04:18:42;99704.41;;;19.54;100.00
66681;BME280;53575;51.366;12.350;2022-08-19T04:21:19;99712.88;;;19.60;100.00
66681;BME280;53575;51.366;12.350;2022-08-19T04:23:45;99720.06;;;19.58;100.00
66681;BME280;53575;51.366;12.350;2022-08-19T04:26:19;99724.31;;;19.61;100.00
66681;BME280;53575;51.366;12.350;2022-08-19T04:28:45;99722.63;;;19.60;100.00
66681;BME280;53575;51.366;12.350;2022-08-19T04:31:16;99714.22;;;19.69;100.00
66681;BME280;53575;51.366;12.350;2022-08-19T04:33:41;99705.75;;;19.62;100.00
66681;BME280;53575;51.366;12.350;2022-08-19T04:36:07;99699.41;;;19.65;100.00
66681;BME280;53575;51.366;12.350;2022-08-19T04:38:34;99688.91;;;19.79;100.00
66681;BME280;53575;51.366;12.350;2022-08-19T04:41:03;99679.34;;;19.77;100.00
66681;BME280;53575;51.366;12.350;2022-08-19T04:43:47;99674.97;;;19.76;100.00
66681;BME280;53575;51.366;12.350;2022-08-19T04:46:14;99676.06;;;19.71;100.00
66681;BME280;53575;51.366;12.350;2022-08-19T04:48:40;99660.16;;;19.71;100.00
66681;BME280;53575;51.366;12.350;2022-08-19T04:51:09;99667.88;;;19.76;100.00
66681;BME280;53575;51.366;12.350;2022-08-19T04:53:37;99676.00;;;19.73;100.00
66681;BME280;53575;51.366;12.350;2022-08-19T04:56:14;99678.66;;;19.73;100.00
66681;BME280;53575;51.366;12.350;2022-08-19T04:58:43;99677.88;;;19.71;100.00
66681;BME280;53575;51.366;12.350;2022-08-19T05:01:18;99690.59;;;19.64;100.00
66681;BME280;53575;51.366;12.350;2022-08-19T05:03:44;99690.97;;;19.74;100.00
66681;BME280;53575;51.366;12.350;2022-08-19T05:06:14;99692.78;;;19.74;100.00
66681;BME280;53575;51.366;12.350;2022-08-19T05:08:41;99694.97;;;19.65;100.00
66681;BME280;53575;51.366;12.350;2022-08-19T05:13:42;99699.09;;;19.71;100.00
66681;BME280;53575;51.366;12.350;2022-08-19T05:16:09;99703.78;;;19.66;100.00
66681;BME280;53575;51.366;12.350;2022-08-19T05:18:35;99703.78;;;19.66;100.00
66681;BME280;53575;51.366;12.350;2022-08-19T05:21:20;99693.97;;;19.84;100.00
66681;BME280;53575;51.366;12.350;2022-08-19T05:24:05;99692.25;;;19.83;100.00
66681;BME280;53575;51.366;12.350;2022-08-19T05:26:39;99695.06;;;19.80;100.00
66681;BME280;53575;51.366;12.350;2022-08-19T05:29:05;99685.31;;;19.80;100.00
66681;BME280;53575;51.366;12.350;2022-08-19T05:31:32;99697.41;;;19.86;100.00
66681;BME280;53575;51.366;12.350;2022-08-19T05:33:58;99709.81;;;19.85;100.00
66681;BME280;53575;51.366;12.350;2022-08-19T05:36:27;99704.66;;;19.82;100.00
66681;BME280;53575;51.366;12.350;2022-08-19T05:38:53;99711.50;;;19.86;100.00
66681;BME280;53575;51.366;12.350;2022-08-19T05:41:20;99720.84;;;19.93;100.00
66681;BME280;53575;51.366;12.350;2022-08-19T05:43:48;99717.50;;;19.90;100.00
66681;BME280;53575;51.366;12.350;2022-08-19T05:46:18;99723.13;;;19.84;100.00
66681;BME280;53575;51.366;12.350;2022-08-19T05:48:47;99727.06;;;19.77;100.00
66681;BME280;53575;51.366;12.350;2022-08-19T05:51:14;99732.81;;;19.85;100.00
66681;BME280;53575;51.366;12.350;2022-08-19T05:53:41;99736.94;;;19.90;100.00
66681;BME280;53575;51.366;12.350;2022-08-19T05:56:15;99754.88;;;19.85;100.00
66681;BME280;53575;51.366;12.350;2022-08-19T05:58:42;99753.84;;;19.88;100.00
66681;BME280;53575;51.366;12.350;2022-08-19T06:01:14;99749.84;;;19.81;100.00
66681;BME280;53575;51.366;12.350;2022-08-19T06:03:40;99747.19;;;19.81;100.00
66681;BME280;53575;51.366;12.350;2022-08-19T06:06:11;99748.78;;;19.83;100.00
66681;BME280;53575;51.366;12.350;2022-08-19T06:08:39;99751.53;;;19.82;100.00
66681;BME280;53575;51.366;12.350;2022-08-19T06:13:41;99744.47;;;19.98;100.00
66681;BME280;53575;51.366;12.350;2022-08-19T06:16:07;99753.63;;;19.92;100.00
66681;BME280;53575;51.366;12.350;2022-08-19T06:18:39;99747.47;;;19.92;100.00
66681;BME280;53575;51.366;12.350;2022-08-19T06:21:05;99755.84;;;19.84;100.00
66681;BME280;53575;51.366;12.350;2022-08-19T06:23:31;99748.22;;;19.94;100.00
66681;BME280;53575;51.366;12.350;2022-08-19T06:25:59;99743.53;;;19.99;100.00
66681;BME280;53575;51.366;12.350;2022-08-19T06:28:24;99753.63;;;19.92;100.00
66681;BME280;53575;51.366;12.350;2022-08-19T06:30:50;99745.66;;;19.92;100.00
66681;BME280;53575;51.366;12.350;2022-08-19T06:33:16;99749.63;;;20.01;100.00
66681;BME280;53575;51.366;12.350;2022-08-19T06:35:41;99762.34;;;19.94;100.00
66681;BME280;53575;51.366;12.350;2022-08-19T06:38:07;99765.78;;;19.96;100.00
66681;BME280;53575;51.366;12.350;2022-08-19T06:40:35;99779.06;;;19.79;100.00
66681;BME280;53575;51.366;12.350;2022-08-19T06:43:01;99796.38;;;19.86;100.00
66681;BME280;53575;51.366;12.350;2022-08-19T06:45:28;99805.72;;;19.76;100.00
66681;BME280;53575;51.366;12.350;2022-08-19T06:47:53;99809.47;;;19.89;100.00
66681;BME280;53575;51.366;12.350;2022-08-19T06:50:23;99824.78;;;19.84;100.00
66681;BME280;53575;51.366;12.350;2022-08-19T06:52:48;99830.97;;;20.01;100.00
66681;BME280;53575;51.366;12.350;2022-08-19T06:55:14;99833.63;;;20.01;100.00
66681;BME280;53575;51.366;12.350;2022-08-19T06:57:43;99840.34;;;20.08;100.00
66681;BME280;53575;51.366;12.350;2022-08-19T07:00:11;99839.50;;;19.90;100.00
66681;BME280;53575;51.366;12.350;2022-08-19T07:02:43;99853.44;;;19.76;100.00
66681;BME280;53575;51.366;12.350;2022-08-19T07:05:09;99859.63;;;19.77;100.00
66681;BME280;53575;51.366;12.350;2022-08-19T07:07:35;99852.44;;;19.79;100.00
66681;BME280;53575;51.366;12.350;2022-08-19T07:10:01;99860.50;;;19.77;100.00
66681;BME280;53575;51.366;12.350;2022-08-19T07:12:31;99860.09;;;19.67;100.00
66681;BME280;53575;51.366;12.350;2022-08-19T07:14:59;99864.94;;;19.77;100.00
66681;BME280;53575;51.366;12.350;2022-08-19T07:17:25;99878.41;;;19.72;100.00
66681;BME280;53575;51.366;12.350;2022-08-19T07:19:50;99873.03;;;19.74;100.00
66681;BME280;53575;51.366;12.350;2022-08-19T07:22:16;99878.03;;;19.62;100.00
66681;BME280;53575;51.366;12.350;2022-08-19T07:24:43;99877.88;;;19.65;100.00
66681;BME280;53575;51.366;12.350;2022-08-19T07:27:08;99877.88;;;19.65;100.00
66681;BME280;53575;51.366;12.350;2022-08-19T07:29:36;99881.28;;;19.67;100.00
66681;BME280;53575;51.366;12.350;2022-08-19T07:32:03;99888.94;;;19.74;100.00
66681;BME280;53575;51.366;12.350;2022-08-19T07:34:30;99879.97;;;19.76;100.00
66681;BME280;53575;51.366;12.350;2022-08-19T07:36:56;99878.25;;;19.75;100.00
66681;BME280;53575;51.366;12.350;2022-08-19T07:39:25;99875.22;;;19.83;100.00
66681;BME280;53575;51.366;12.350;2022-08-19T07:41:57;99871.63;;;19.84;100.00
66681;BME280;53575;51.366;12.350;2022-08-19T07:44:24;99873.16;;;19.88;100.00
66681;BME280;53575;51.366;12.350;2022-08-19T07:46:52;99872.00;;;19.76;100.00
66681;BME280;53575;51.366;12.350;2022-08-19T07:49:19;99868.19;;;19.82;100.00
66681;BME280;53575;51.366;12.350;2022-08-19T07:51:52;99872.81;;;19.78;100.00
66681;BME280;53575;51.366;12.350;2022-08-19T07:54:19;99877.16;;;19.96;100.00
66681;BME280;53575;51.366;12.350;2022-08-19T07:56:44;99880.13;;;20.08;100.00
66681;BME280;53575;51.366;12.350;2022-08-19T07:59:10;99878.31;;;19.91;100.00
66681;BME280;53575;51.366;12.350;2022-08-19T08:01:36;99873.66;;;19.96;100.00
66681;BME280;53575;51.366;12.350;2022-08-19T08:04:02;99875.28;;;19.99;100.00
66681;BME280;53575;51.366;12.350;2022-08-19T08:06:45;99885.19;;;19.95;100.00
66681;BME280;53575;51.366;12.350;2022-08-19T08:09:33;99883.56;;;19.92;100.00
66681;BME280;53575;51.366;12.350;2022-08-19T08:12:06;99879.97;;;19.93;100.00
66681;BME280;53575;51.366;12.350;2022-08-19T08:14:56;99880.72;;;20.13;100.00
66681;BME280;53575;51.366;12.350;2022-08-19T08:17:23;99896.41;;;20.17;100.00
66681;BME280;53575;51.366;12.350;2022-08-19T08:19:49;99888.78;;;20.11;100.00
66681;BME280;53575;51.366;12.350;2022-08-19T08:22:18;99890.09;;;20.03;100.00
66681;BME280;53575;51.366;12.350;2022-08-19T08:25:04;99889.38;;;20.16;100.00
66681;BME280;53575;51.366;12.350;2022-08-19T08:27:30;99896.09;;;20.24;100.00
66681;BME280;53575;51.366;12.350;2022-08-19T08:29:57;99895.00;;;20.10;100.00
66681;BME280;53575;51.366;12.350;2022-08-19T08:32:23;99908.59;;;20.04;100.00
66681;BME280;53575;51.366;12.350;2022-08-19T08:34:48;99907.94;;;19.99;100.00
66681;BME280;53575;51.366;12.350;2022-08-19T08:37:14;99905.78;;;19.90;100.00
66681;BME280;53575;51.366;12.350;2022-08-19T08:39:39;99907.66;;;19.70;100.00
66681;BME280;53575;51.366;12.350;2022-08-19T08:42:11;99906.88;;;19.86;100.00
66681;BME280;53575;51.366;12.350;2022-08-19T08:44:52;99902.84;;;19.96;100.00
66681;BME280;53575;51.366;12.350;2022-08-19T08:47:20;99906.34;;;19.96;100.00
66681;BME280;53575;51.366;12.350;2022-08-19T08:49:54;99912.88;;;20.07;100.00
66681;BME280;53575;51.366;12.350;2022-08-19T08:52:26;99914.34;;;19.95;100.00
66681;BME280;53575;51.366;12.350;2022-08-19T08:54:55;99915.91;;;19.99;100.00
66681;BME280;53575;51.366;12.350;2022-08-19T08:57:29;99919.75;;;19.93;100.00
66681;BME280;53575;51.366;12.350;2022-08-19T09:00:02;99930.66;;;20.05;100.00
66681;BME280;53575;51.366;12.350;2022-08-19T09:02:30;99934.31;;;20.02;100.00
66681;BME280;53575;51.366;12.350;2022-08-19T09:04:55;99923.41;;;19.91;100.00
66681;BME280;53575;51.366;12.350;2022-08-19T09:15:56;99920.06;;;20.05;100.00
66681;BME280;53575;51.366;12.350;2022-08-19T09:18:23;99918.03;;;20.10;100.00
66681;BME280;53575;51.366;12.350;2022-08-19T09:20:48;99910.69;;;20.15;100.00
66681;BME280;53575;51.366;12.350;2022-08-19T09:23:14;99913.16;;;20.18;100.00
66681;BME280;53575;51.366;12.350;2022-08-19T09:25:40;99915.22;;;20.13;100.00
66681;BME280;53575;51.366;12.350;2022-08-19T09:28:06;99916.31;;;20.26;100.00
66681;BME280;53575;51.366;12.350;2022-08-19T09:30:38;99915.59;;;20.23;100.00
66681;BME280;53575;51.366;12.350;2022-08-19T09:33:05;99919.34;;;20.18;100.00
66681;BME280;53575;51.366;12.350;2022-08-19T09:35:31;99925.13;;;20.27;100.00
66681;BME280;53575;51.366;12.350;2022-08-19T09:37:58;99920.50;;;20.30;100.00
66681;BME280;53575;51.366;12.350;2022-08-19T09:40:24;99925.63;;;20.33;99.47
66681;BME280;53575;51.366;12.350;2022-08-19T09:42:50;99925.03;;;20.28;99.22
66681;BME280;53575;51.366;12.350;2022-08-19T09:45:19;99928.06;;;20.20;99.64
66681;BME280;53575;51.366;12.350;2022-08-19T09:47:46;99923.78;;;20.35;98.56
66681;BME280;53575;51.366;12.350;2022-08-19T09:50:12;99917.03;;;20.45;97.63
66681;BME280;53575;51.366;12.350;2022-08-19T09:52:38;99921.56;;;20.43;97.76
66681;BME280;53575;51.366;12.350;2022-08-19T09:55:09;99928.50;;;20.63;96.25
66681;BME280;53575;51.366;12.350;2022-08-19T09:57:34;99926.88;;;20.43;96.83
66681;BME280;53575;51.366;12.350;2022-08-19T10:00:00;99916.34;;;20.42;96.81
66681;BME280;53575;51.366;12.350;2022-08-19T10:02:26;99914.38;;;20.45;95.56
66681;BME280;53575;51.366;12.350;2022-08-19T10:04:51;99909.91;;;20.30;96.69
66681;BME280;53575;51.366;12.350;2022-08-19T10:07:36;99921.97;;;20.53;95.42
66681;BME280;53575;51.366;12.350;2022-08-19T10:10:06;99925.47;;;20.54;94.88
66681;BME280;53575;51.366;12.350;2022-08-19T10:12:33;99913.06;;;20.54;94.34
66681;BME280;53575;51.366;12.350;2022-08-19T10:15:00;99906.50;;;20.77;92.43
66681;BME280;53575;51.366;12.350;2022-08-19T10:17:26;99899.81;;;20.70;92.79
66681;BME280;53575;51.366;12.350;2022-08-19T10:19:52;99897.56;;;20.62;92.78
66681;BME280;53575;51.366;12.350;2022-08-19T10:22:18;99907.88;;;20.84;91.46
66681;BME280;53575;51.366;12.350;2022-08-19T10:24:45;99899.81;;;21.02;90.36
66681;BME280;53575;51.366;12.350;2022-08-19T10:27:10;99912.94;;;21.05;89.04
66681;BME280;53575;51.366;12.350;2022-08-19T10:29:37;99895.38;;;21.18;88.97
66681;BME280;53575;51.366;12.350;2022-08-19T10:32:05;99900.44;;;21.23;88.36
66681;BME280;53575;51.366;12.350;2022-08-19T10:34:32;99914.66;;;21.53;87.54
66681;BME280;53575;51.366;12.350;2022-08-19T10:36:59;99913.72;;;21.38;87.21
66681;BME280;53575;51.366;12.350;2022-08-19T10:39:25;99910.13;;;21.24;87.89
66681;BME280;53575;51.366;12.350;2022-08-19T10:41:54;99912.34;;;21.31;88.40
66681;BME280;53575;51.366;12.350;2022-08-19T10:44:21;99911.94;;;21.39;88.09
66681;BME280;53575;51.366;12.350;2022-08-19T10:46:48;99918.34;;;21.19;88.20
66681;BME280;53575;51.366;12.350;2022-08-19T10:49:16;99916.97;;;20.96;88.95
66681;BME280;53575;51.366;12.350;2022-08-19T10:51:43;99931.16;;;20.79;89.28
66681;BME280;53575;51.366;12.350;2022-08-19T10:54:27;99926.91;;;20.77;90.04
66681;BME280;53575;51.366;12.350;2022-08-19T10:57:13;99934.94;;;20.75;89.63
66681;BME280;53575;51.366;12.350;2022-08-19T10:59:39;99934.91;;;20.59;89.68
66681;BME280;53575;51.366;12.350;2022-08-19T11:02:07;99930.78;;;20.54;89.67
66681;BME280;53575;51.366;12.350;2022-08-19T11:04:35;99933.53;;;20.68;89.72
66681;BME280;53575;51.366;12.350;2022-08-19T11:07:01;99930.31;;;20.79;88.42
66681;BME280;53575;51.366;12.350;2022-08-19T11:09:27;99927.75;;;20.77;87.58
66681;BME280;53575;51.366;12.350;2022-08-19T11:11:53;99918.63;;;20.99;86.57
66681;BME280;53575;51.366;12.350;2022-08-19T11:14:20;99923.88;;;20.83;86.88
66681;BME280;53575;51.366;12.350;2022-08-19T11:16:47;99910.28;;;21.05;86.15
66681;BME280;53575;51.366;12.350;2022-08-19T11:19:13;99908.66;;;21.02;86.73
66681;BME280;53575;51.366;12.350;2022-08-19T11:21:43;99917.97;;;21.25;85.54
66681;BME280;53575;51.366;12.350;2022-08-19T11:24:18;99922.22;;;21.29;84.70
66681;BME280;53575;51.366;12.350;2022-08-19T11:26:46;99926.75;;;21.43;83.66
66681;BME280;53575;51.366;12.350;2022-08-19T11:29:13;99932.50;;;21.35;84.14
66681;BME280;53575;51.366;12.350;2022-08-19T11:31:42;99940.91;;;21.44;82.69
66681;BME280;53575;51.366;12.350;2022-08-19T11:34:12;99939.72;;;21.49;82.78
66681;BME280;53575;51.366;12.350;2022-08-19T11:36:41;99952.97;;;21.65;82.19
66681;BME280;53575;51.366;12.350;2022-08-19T11:39:09;99947.22;;;21.73;81.48
66681;BME280;53575;51.366;12.350;2022-08-19T11:41:35;99959.72;;;21.86;81.08
66681;BME280;53575;51.366;12.350;2022-08-19T11:44:01;99956.38;;;21.83;80.02
66681;BME280;53575;51.366;12.350;2022-08-19T11:46:28;99957.41;;;21.80;80.27
66681;BME280;53575;51.366;12.350;2022-08-19T11:48:55;99955.78;;;21.78;80.23
66681;BME280;53575;51.366;12.350;2022-08-19T11:51:24;99957.63;;;21.92;79.85
66681;BME280;53575;51.366;12.350;2022-08-19T11:53:53;99952.16;;;22.09;79.42
66681;BME280;53575;51.366;12.350;2022-08-19T11:56:20;99960.06;;;22.10;77.90
66681;BME280;53575;51.366;12.350;2022-08-19T11:58:46;99958.50;;;21.92;78.97
66681;BME280;53575;51.366;12.350;2022-08-19T12:01:14;99955.66;;;21.95;79.14
66681;BME280;53575;51.366;12.350;2022-08-19T12:03:43;99949.31;;;22.12;79.10
66681;BME280;53575;51.366;12.350;2022-08-19T12:06:11;99946.41;;;22.17;78.31
66681;BME280;53575;51.366;12.350;2022-08-19T12:08:41;99940.84;;;22.21;77.94
66681;BME280;53575;51.366;12.350;2022-08-19T12:11:08;99939.06;;;22.65;76.79
66681;BME280;53575;51.366;12.350;2022-08-19T12:13:35;99932.69;;;22.96;74.78
66681;BME280;53575;51.366;12.350;2022-08-19T12:16:08;99926.00;;;23.17;73.18
66681;BME280;53575;51.366;12.350;2022-08-19T12:18:35;99924.31;;;23.02;74.13
66681;BME280;53575;51.366;12.350;2022-08-19T12:21:01;99919.56;;;23.34;73.03
66681;BME280;53575;51.366;12.350;2022-08-19T12:23:26;99921.41;;;23.46;72.18
66681;BME280;53575;51.366;12.350;2022-08-19T12:25:52;99913.72;;;23.00;73.64
66681;BME280;53575;51.366;12.350;2022-08-19T12:28:22;99911.97;;;23.28;72.97
66681;BME280;53575;51.366;12.350;2022-08-19T12:30:49;99904.56;;;23.19;73.16
66681;BME280;53575;51.366;12.350;2022-08-19T12:33:17;99896.34;;;23.49;72.02
66681;BME280;53575;51.366;12.350;2022-08-19T12:35:44;99903.66;;;23.32;72.52
66681;BME280;53575;51.366;12.350;2022-08-19T12:38:11;99900.69;;;23.10;73.07
66681;BME280;53575;51.366;12.350;2022-08-19T12:40:37;99899.91;;;23.08;73.25
66681;BME280;53575;51.366;12.350;2022-08-19T12:43:04;99894.81;;;23.05;73.96
66681;BME280;53575;51.366;12.350;2022-08-19T12:45:29;99899.06;;;23.07;73.87
66681;BME280;53575;51.366;12.350;2022-08-19T12:47:54;99898.22;;;23.34;72.74
66681;BME280;53575;51.366;12.350;2022-08-19T12:50:20;99903.72;;;23.58;71.65
66681;BME280;53575;51.366;12.350;2022-08-19T12:52:47;99899.28;;;23.58;71.43
66681;BME280;53575;51.366;12.350;2022-08-19T12:55:13;99912.78;;;23.70;71.66
66681;BME280;53575;51.366;12.350;2022-08-19T12:57:39;99904.50;;;23.60;71.64
66681;BME280;53575;51.366;12.350;2022-08-19T13:00:23;99911.06;;;23.69;72.06
66681;BME280;53575;51.366;12.350;2022-08-19T13:02:50;99903.13;;;23.54;72.11